Time;durP1;ratioP1;P1;durP2;ratioP2;P2;SDS_P1;SDS_P2;PMS_P1;PMS_P2;Temp;Humidity;BMP_temperature;BMP_pressure;BME280_temperature;BME280_humidity;BME280_pressure;Samples;Min_cycle;Max_cycle;Signal;HPM_P1;HPM_P2
2022/05/06 00:01:35;;;;;;;;;5.50;4.50;;;;;19.46;50.91;102626.88;5051173;28;8814;-70
2022/05/06 00:04:00;;;;;;;;;2.00;2.00;;;;;19.47;50.96;102628.69;5049082;28;9653;-70
2022/05/06 00:06:28;;;;;;;;;1.00;1.00;;;;;19.47;50.78;102625.13;5050827;28;11682;-70
2022/05/06 00:08:54;;;;;;;;;3.00;2.75;;;;;19.46;50.75;102623.38;5051055;28;8810;-69
2022/05/06 00:11:19;;;;;;;;;2.50;2.00;;;;;19.46;50.92;102626.88;5051301;28;9533;-69
2022/05/06 00:13:45;;;;;;;;;2.75;2.75;;;;;19.47;50.94;102622.47;5048398;28;8912;-70
2022/05/06 00:16:10;;;;;;;;;2.50;2.50;;;;;19.47;50.55;102623.38;5051099;28;8841;-70
2022/05/06 00:18:39;;;;;;;;;5.75;4.75;;;;;19.44;50.98;102622.44;5051216;28;8826;-70
2022/05/06 00:21:04;;;;;;;;;1.50;1.50;;;;;19.41;50.80;102617.97;5050497;28;9521;-70
2022/05/06 00:23:30;;;;;;;;;4.00;3.00;;;;;19.42;51.00;102616.25;5048993;28;9520;-70
2022/05/06 00:25:56;;;;;;;;;2.75;2.75;;;;;19.41;50.68;102617.97;5050701;28;9343;-70
2022/05/06 00:28:21;;;;;;;;;3.00;2.25;;;;;19.41;50.86;102627.69;5050224;28;8766;-70
2022/05/06 00:30:47;;;;;;;;;4.50;4.50;;;;;19.40;51.19;102616.19;5050490;28;9724;-70
2022/05/06 00:33:13;;;;;;;;;3.00;3.00;;;;;19.40;51.02;102613.53;5048800;28;8816;-70
2022/05/06 00:35:39;;;;;;;;;0.00;0.00;;;;;19.41;50.84;102611.78;5050244;28;8887;-70
2022/05/06 00:38:05;;;;;;;;;2.00;2.00;;;;;19.39;51.00;102619.69;5050380;28;9466;-70
2022/05/06 00:40:30;;;;;;;;;2.25;2.25;;;;;19.39;51.10;102610.84;5050301;28;9583;-70
2022/05/06 00:42:56;;;;;;;;;3.00;3.00;;;;;19.38;50.73;102611.75;5049471;28;8785;-70
2022/05/06 00:45:22;;;;;;;;;2.50;2.50;;;;;19.39;50.73;102610.84;5050468;28;8797;-70
2022/05/06 00:47:49;;;;;;;;;2.00;2.00;;;;;19.38;50.97;102607.34;5050030;28;9542;-70
2022/05/06 00:50:15;;;;;;;;;3.00;3.00;;;;;19.39;51.08;102605.56;5049889;28;10390;-70
2022/05/06 00:52:41;;;;;;;;;2.75;2.00;;;;;19.36;50.72;102611.72;5050633;28;9550;-70
2022/05/06 00:55:08;;;;;;;;;4.25;3.50;;;;;19.36;50.78;102603.75;5048272;28;9416;-70
2022/05/06 00:57:33;;;;;;;;;3.25;2.00;;;;;19.37;51.01;102609.97;5050217;28;8829;-70
2022/05/06 01:00:19;;;;;;;;;4.25;4.00;;;;;19.36;50.95;102608.16;5049836;28;9547;-70
2022/05/06 01:02:46;;;;;;;;;2.25;2.25;;;;;19.34;50.96;102616.13;5049276;28;8806;-70
2022/05/06 01:05:13;;;;;;;;;1.75;1.75;;;;;19.35;50.72;102611.69;5050339;28;9480;-70
2022/05/06 01:07:39;;;;;;;;;2.00;2.00;;;;;19.34;51.04;102613.47;5050206;28;9561;-70
2022/05/06 01:10:05;;;;;;;;;3.75;3.00;;;;;19.35;51.29;102620.53;5049166;28;9417;-70
2022/05/06 01:12:30;;;;;;;;;1.67;1.67;;;;;19.34;50.77;102610.81;5050384;28;9545;-70
2022/05/06 01:14:55;;;;;;;;;2.00;2.00;;;;;19.34;51.05;102609.91;5049533;28;9375;-70
2022/05/06 01:17:22;;;;;;;;;2.33;2.00;;;;;19.34;50.87;102615.22;5048938;28;8854;-71
2022/05/06 01:19:47;;;;;;;;;2.75;2.50;;;;;19.31;50.91;102614.28;5049634;28;8810;-70
2022/05/06 01:22:12;;;;;;;;;2.50;2.50;;;;;19.33;50.87;102616.97;5050060;28;9508;-70
2022/05/06 01:24:38;;;;;;;;;2.33;2.00;;;;;19.32;50.95;102617.84;5049261;28;8802;-70
2022/05/06 01:27:08;;;;;;;;;2.00;2.00;;;;;19.33;50.88;102613.44;5049584;28;8806;-71
2022/05/06 01:29:35;;;;;;;;;3.00;3.00;;;;;19.32;50.66;102617.84;5049604;28;8863;-70
2022/05/06 01:32:01;;;;;;;;;2.33;2.33;;;;;19.33;50.67;102621.38;5048910;28;9497;-70
2022/05/06 01:34:29;;;;;;;;;1.75;1.75;;;;;19.33;50.69;102624.91;5049685;28;9267;-70
2022/05/06 01:36:59;;;;;;;;;1.25;1.25;;;;;19.30;51.03;102619.59;5049461;28;10412;-70
2022/05/06 01:39:34;;;;;;;;;3.00;3.00;;;;;19.30;51.27;102614.28;5049003;28;9446;-70
2022/05/06 01:42:04;;;;;;;;;2.00;2.00;;;;;19.30;50.79;102615.19;5049020;28;10250;-70
2022/05/06 01:44:37;;;;;;;;;1.50;1.50;;;;;19.30;50.95;102620.47;5049398;28;9513;-70
2022/05/06 01:47:05;;;;;;;;;3.00;2.00;;;;;19.29;50.65;102616.03;5049545;28;9507;-70
2022/05/06 01:49:31;;;;;;;;;3.00;3.00;;;;;19.28;50.82;102616.91;5049459;28;10168;-70
2022/05/06 01:51:57;;;;;;;;;2.00;1.50;;;;;19.29;50.85;102620.44;5048773;28;9269;-70
2022/05/06 01:54:23;;;;;;;;;2.00;2.00;;;;;19.28;50.81;102619.56;5049579;28;8777;-70
2022/05/06 01:56:49;;;;;;;;;1.75;1.75;;;;;19.29;50.96;102620.44;5049001;28;9387;-70
2022/05/06 01:59:14;;;;;;;;;1.50;1.50;;;;;19.28;50.79;102626.59;5049177;28;8936;-70
2022/05/06 02:01:39;;;;;;;;;3.75;2.50;;;;;19.28;51.09;102623.94;5049424;28;8832;-70
2022/05/06 02:06:48;;;;;;;;;2.00;2.00;;;;;19.27;50.93;102625.72;5050568;28;8750;-70
2022/05/06 02:09:15;;;;;;;;;1.00;1.00;;;;;19.26;50.66;102626.59;5053461;28;9426;-70
2022/05/06 02:11:40;;;;;;;;;1.25;1.25;;;;;19.27;50.77;102631.00;5053680;28;8889;-70
2022/05/06 02:14:06;;;;;;;;;1.75;1.75;;;;;19.25;50.95;102631.88;5052522;28;9727;-70
2022/05/06 02:16:34;;;;;;;;;2.00;2.00;;;;;19.26;50.78;102628.34;5053173;28;8849;-70
2022/05/06 02:18:59;;;;;;;;;1.00;1.00;;;;;19.26;50.96;102623.06;5052974;28;8838;-70
2022/05/06 02:21:24;;;;;;;;;0.75;0.75;;;;;19.24;50.95;102616.84;5052643;28;9549;-70
2022/05/06 02:23:52;;;;;;;;;2.75;2.75;;;;;19.25;50.98;102619.50;5053086;28;8786;-70
2022/05/06 02:26:18;;;;;;;;;1.00;1.00;;;;;19.24;50.93;102623.03;5053250;28;8778;-70
2022/05/06 02:28:43;;;;;;;;;1.50;1.50;;;;;19.24;50.82;102619.47;5052290;28;9442;-70
2022/05/06 02:33:55;;;;;;;;;2.00;2.00;;;;;19.23;50.92;102621.22;5052421;28;8754;-70
2022/05/06 02:36:24;;;;;;;;;1.00;1.00;;;;;19.24;51.06;102623.03;5052859;28;9421;-70
2022/05/06 02:38:49;;;;;;;;;1.00;1.00;;;;;19.22;50.76;102622.13;5052727;28;8834;-70
2022/05/06 02:41:15;;;;;;;;;0.00;0.00;;;;;19.22;50.85;102619.47;5052165;28;9360;-70
2022/05/06 02:43:41;;;;;;;;;1.00;1.00;;;;;19.22;51.01;102621.22;5052966;28;8770;-70
2022/05/06 02:46:06;;;;;;;;;2.00;2.00;;;;;19.21;50.77;102617.69;5052299;28;9547;-70
2022/05/06 02:48:31;;;;;;;;;2.00;2.00;;;;;19.22;50.85;102621.22;5052107;28;8804;-70
2022/05/06 02:50:57;;;;;;;;;1.00;1.00;;;;;19.22;51.12;102626.53;5052293;28;8834;-70
2022/05/06 02:53:22;;;;;;;;;1.00;1.00;;;;;19.21;51.52;102633.56;5052523;28;8844;-70
2022/05/06 02:55:48;;;;;;;;;1.00;1.00;;;;;19.21;51.05;102635.31;5051875;28;8828;-70
2022/05/06 02:58:13;;;;;;;;;2.00;2.00;;;;;19.20;50.67;102630.91;5052367;28;8817;-70
2022/05/06 03:00:38;;;;;;;;;1.00;1.00;;;;;19.20;51.09;102628.25;5052579;28;8814;-70
2022/05/06 03:03:04;;;;;;;;;2.75;2.00;;;;;19.20;50.99;102631.78;5051297;28;8856;-70
2022/05/06 03:05:29;;;;;;;;;1.00;1.00;;;;;19.19;50.86;102630.03;5052376;28;8806;-70
2022/05/06 03:07:56;;;;;;;;;1.00;1.00;;;;;19.17;50.99;102629.09;5052186;28;8762;-70
2022/05/06 03:10:21;;;;;;;;;1.00;1.00;;;;;19.18;50.96;102632.66;5051566;28;8805;-70
2022/05/06 03:12:50;;;;;;;;;2.00;1.67;;;;;19.16;51.43;102623.78;5052044;28;9263;-70
2022/05/06 03:15:18;;;;;;;;;2.00;2.00;;;;;19.16;51.05;102622.03;5052626;28;8782;-70
2022/05/06 03:17:43;;;;;;;;;1.00;1.00;;;;;19.17;50.79;102626.44;5050048;28;9227;-70
2022/05/06 03:20:09;;;;;;;;;1.00;1.00;;;;;19.18;50.93;102615.00;5052427;28;9368;-70
2022/05/06 03:22:42;;;;;;;;;1.00;1.00;;;;;19.16;50.98;102624.66;5052380;28;8790;-70
2022/05/06 03:25:10;;;;;;;;;0.00;0.00;;;;;19.17;50.83;102626.44;5051280;28;8924;-70
2022/05/06 03:30:19;;;;;;;;;1.00;1.00;;;;;19.16;51.12;102624.66;5051270;28;9335;-70
2022/05/06 03:32:44;;;;;;;;;1.33;1.33;;;;;19.15;50.84;102625.56;5051548;28;9460;-70
2022/05/06 03:35:10;;;;;;;;;3.00;1.00;;;;;19.15;50.94;102622.00;5052246;28;8778;-70
2022/05/06 03:37:38;;;;;;;;;0.67;0.67;;;;;19.13;51.25;102627.28;5051375;28;8833;-70
2022/05/06 03:40:04;;;;;;;;;1.00;1.00;;;;;19.14;50.97;102621.13;5051915;28;8810;-70
2022/05/06 03:42:29;;;;;;;;;1.00;1.00;;;;;19.14;50.85;102620.22;5051747;28;9371;-70
2022/05/06 03:44:55;;;;;;;;;1.33;1.33;;;;;19.14;51.13;102622.88;5050979;28;9384;-70
2022/05/06 03:47:21;;;;;;;;;1.00;1.00;;;;;19.14;50.90;102620.22;5051652;28;8900;-70
2022/05/06 03:51:20;;;;;;;;;1.00;1.00;;;;;19.13;50.90;102614.03;5051739;28;8852;-70
2022/05/06 03:52:31;;;;;;;;;0.33;0.33;;;;;19.12;51.07;102617.53;5050118;28;9386;-70
2022/05/06 03:54:57;;;;;;;;;2.00;1.00;;;;;19.12;51.06;102612.25;5051126;28;9388;-70
2022/05/06 03:57:22;;;;;;;;;1.75;1.75;;;;;19.13;51.06;102615.78;5051401;28;8790;-70
2022/05/06 03:59:47;;;;;;;;;2.67;1.00;;;;;19.12;50.72;102614.91;5050645;28;8836;-70
2022/05/06 04:02:13;;;;;;;;;2.00;1.00;;;;;19.12;50.77;102620.19;5051234;28;8812;-69
2022/05/06 04:04:38;;;;;;;;;1.00;1.00;;;;;19.12;50.81;102616.69;5051266;28;8818;-70
2022/05/06 04:07:03;;;;;;;;;1.75;1.25;;;;;19.12;51.01;102628.13;5050288;28;8793;-70
2022/05/06 04:09:29;;;;;;;;;1.00;1.00;;;;;19.11;50.98;102612.25;5051100;28;8785;-70
2022/05/06 04:11:56;;;;;;;;;1.00;1.00;;;;;19.10;51.09;102619.28;5050563;28;8801;-70
2022/05/06 04:14:21;;;;;;;;;1.00;1.00;;;;;19.11;50.88;102612.25;5050403;28;8809;-70
2022/05/06 04:16:46;;;;;;;;;1.25;1.00;;;;;19.11;50.94;102613.13;5050512;28;9401;-70
2022/05/06 04:19:15;;;;;;;;;0.00;0.00;;;;;19.12;50.87;102614.03;5049968;28;8833;-70
2022/05/06 04:24:23;;;;;;;;;2.00;1.00;;;;;19.09;50.96;102620.16;5050819;28;9161;-70
2022/05/06 04:26:49;;;;;;;;;0.00;0.00;;;;;19.10;50.71;102621.94;5049553;28;9295;-70
2022/05/06 04:29:14;;;;;;;;;1.00;1.00;;;;;19.09;51.23;102622.78;5050596;28;8789;-70
2022/05/06 04:31:39;;;;;;;;;2.00;1.00;;;;;19.10;50.89;102635.19;5050806;28;8790;-70
2022/05/06 04:34:07;;;;;;;;;1.00;1.00;;;;;19.10;51.07;102637.81;5049766;28;8789;-70
2022/05/06 04:36:32;;;;;;;;;1.33;1.33;;;;;19.09;51.01;102638.69;5050394;28;8786;-70
2022/05/06 04:39:00;;;;;;;;;1.50;1.25;;;;;19.09;50.81;102637.78;5050417;28;9363;-70
2022/05/06 04:41:27;;;;;;;;;1.00;1.00;;;;;19.09;51.10;102638.69;5050083;28;8809;-70
2022/05/06 04:43:52;;;;;;;;;0.00;0.00;;;;;19.10;50.73;102639.56;5050328;28;9362;-70
2022/05/06 04:46:17;;;;;;;;;2.00;1.00;;;;;19.09;50.96;102645.72;5050292;28;10088;-70
2022/05/06 04:48:43;;;;;;;;;1.00;1.00;;;;;19.08;50.75;102650.13;5049815;28;8835;-70
2022/05/06 04:51:08;;;;;;;;;0.67;0.67;;;;;19.09;50.90;102651.03;5050404;28;8766;-70
2022/05/06 04:53:33;;;;;;;;;0.00;0.00;;;;;19.09;50.73;102651.03;5050436;28;8786;-70
2022/05/06 04:55:59;;;;;;;;;1.33;1.33;;;;;19.09;50.85;102648.38;5049447;28;8794;-70
2022/05/06 04:58:24;;;;;;;;;1.00;1.00;;;;;19.07;50.80;102653.66;5050305;28;8842;-70
2022/05/06 05:00:50;;;;;;;;;1.00;1.00;;;;;19.08;50.83;102646.63;5049687;28;8809;-70
2022/05/06 05:03:15;;;;;;;;;0.00;0.00;;;;;19.06;51.06;102645.69;5049803;28;8816;-70
2022/05/06 05:05:40;;;;;;;;;2.00;1.00;;;;;19.06;50.87;102650.97;5050125;28;8805;-70
2022/05/06 05:08:08;;;;;;;;;1.00;1.00;;;;;19.07;50.84;102648.38;5049804;28;8813;-70
2022/05/06 05:10:34;;;;;;;;;0.00;0.00;;;;;19.07;51.07;102652.78;5049560;28;8806;-70
2022/05/06 05:12:59;;;;;;;;;1.00;1.00;;;;;19.08;50.80;102652.78;5050637;28;9407;-71
2022/05/06 05:15:25;;;;;;;;;0.00;0.00;;;;;19.06;50.91;102649.22;5049481;28;8900;-70
2022/05/06 05:17:50;;;;;;;;;1.00;1.00;;;;;19.07;50.90;102656.31;5050267;28;8846;-71
2022/05/06 05:20:15;;;;;;;;;0.00;0.00;;;;;19.08;51.23;102659.84;5050311;28;8817;-71
2022/05/06 05:22:41;;;;;;;;;0.00;0.00;;;;;19.05;50.92;102654.50;5049452;28;8832;-71
2022/05/06 05:25:08;;;;;;;;;0.33;0.33;;;;;19.07;50.80;102658.97;5049883;28;8794;-71
2022/05/06 05:27:36;;;;;;;;;1.00;0.00;;;;;19.09;50.69;102662.50;5049939;28;9033;-70
2022/05/06 05:30:02;;;;;;;;;0.67;0.67;;;;;19.07;50.84;102660.72;5048964;28;9419;-70
2022/05/06 05:32:28;;;;;;;;;1.00;1.00;;;;;19.09;51.27;102664.25;5049773;28;9345;-70
2022/05/06 05:34:53;;;;;;;;;0.00;0.00;;;;;19.07;51.10;102663.38;5049526;28;9333;-70
2022/05/06 05:37:18;;;;;;;;;1.00;1.00;;;;;19.08;50.87;102665.16;5048795;28;8774;-70
2022/05/06 05:39:44;;;;;;;;;1.00;1.00;;;;;19.06;50.97;102659.81;5049221;28;8794;-70
2022/05/06 05:42:09;;;;;;;;;1.00;1.00;;;;;19.07;51.22;102658.06;5049219;28;8896;-70
2022/05/06 05:50:03;;;;;;;;;0.33;0.33;;;;;19.07;51.21;102666.00;5049051;28;9680;-71
2022/05/06 05:52:28;;;;;;;;;0.00;0.00;;;;;19.07;51.21;102660.72;5048972;28;9344;-71
2022/05/06 05:54:54;;;;;;;;;0.00;0.00;;;;;19.07;51.08;102661.59;5049362;28;8801;-70
2022/05/06 05:57:19;;;;;;;;;0.00;0.00;;;;;19.08;51.07;102662.50;5049533;28;8790;-71
2022/05/06 05:59:44;;;;;;;;;0.33;0.33;;;;;19.07;51.14;102658.97;5048541;28;8778;-70
2022/05/06 06:02:11;;;;;;;;;1.00;1.00;;;;;19.07;51.14;102660.72;5049252;28;8840;-71
2022/05/06 06:04:37;;;;;;;;;0.00;0.00;;;;;19.08;50.81;102666.00;5048648;28;8985;-70
2022/05/06 06:07:02;;;;;;;;;0.00;0.00;;;;;19.08;51.15;102670.44;5048977;28;9186;-71
2022/05/06 06:09:28;;;;;;;;;0.67;0.67;;;;;19.07;51.36;102666.00;5049763;28;9386;-71
2022/05/06 06:11:53;;;;;;;;;0.00;0.00;;;;;19.08;51.06;102667.81;5048625;28;10065;-71
2022/05/06 06:14:21;;;;;;;;;0.00;0.00;;;;;19.07;51.21;102669.56;5049072;28;8909;-70
2022/05/06 06:16:50;;;;;;;;;1.00;1.00;;;;;19.08;50.89;102662.50;5048887;28;8810;-71
2022/05/06 06:19:16;;;;;;;;;0.33;0.33;;;;;19.09;51.04;102670.44;5048502;28;9307;-71
2022/05/06 06:21:41;;;;;;;;;0.67;0.67;;;;;19.09;51.06;102672.22;5049615;28;9131;-70
2022/05/06 06:24:06;;;;;;;;;0.00;0.00;;;;;19.10;50.82;102674.88;5048953;28;8824;-70
2022/05/06 06:26:32;;;;;;;;;0.00;0.00;;;;;19.09;51.09;102675.75;5049308;28;8802;-71
2022/05/06 06:28:57;;;;;;;;;0.00;0.00;;;;;19.09;50.97;102678.41;5049187;28;8837;-70
2022/05/06 06:31:25;;;;;;;;;0.33;0.33;;;;;19.11;51.20;102686.38;5049355;28;8774;-71
2022/05/06 06:33:50;;;;;;;;;0.00;0.00;;;;;19.10;50.81;102681.94;5048144;28;8900;-71
2022/05/06 06:36:17;;;;;;;;;0.00;0.00;;;;;19.10;51.19;102684.59;5049372;28;9402;-71
2022/05/06 06:38:43;;;;;;;;;2.00;0.75;;;;;19.10;51.08;102688.13;5049425;28;8829;-72
2022/05/06 06:41:09;;;;;;;;;0.67;0.00;;;;;19.09;50.88;102675.75;5048573;28;9464;-71
2022/05/06 06:43:34;;;;;;;;;0.00;0.00;;;;;19.10;50.89;102696.06;5049348;28;8789;-71
2022/05/06 06:45:59;;;;;;;;;0.00;0.00;;;;;19.11;50.99;102694.31;5048870;28;9440;-71
2022/05/06 06:48:25;;;;;;;;;0.00;0.00;;;;;19.13;52.28;102693.47;5048468;28;8790;-71
2022/05/06 06:50:52;;;;;;;;;0.00;0.00;;;;;19.15;51.04;102701.44;5048965;28;9703;-72
2022/05/06 06:53:18;;;;;;;;;1.00;1.00;;;;;19.13;51.19;102693.47;5050467;28;8802;-72
2022/05/06 06:55:43;;;;;;;;;0.00;0.00;;;;;19.13;50.95;102700.50;5051821;28;9412;-72
2022/05/06 06:58:08;;;;;;;;;1.00;1.00;;;;;19.14;51.00;102703.19;5052610;28;8894;-72
2022/05/06 07:00:34;;;;;;;;;0.00;0.00;;;;;19.13;51.11;102704.06;5052840;28;8786;-72
2022/05/06 07:02:59;;;;;;;;;1.00;0.00;;;;;19.13;51.14;102698.75;5051642;28;9049;-72
2022/05/06 07:05:24;;;;;;;;;1.00;1.00;;;;;19.14;51.16;102699.66;5052574;28;8862;-72
2022/05/06 07:13:18;;;;;;;;;0.00;0.00;;;;;19.15;50.90;102696.16;5052153;28;9281;-72
2022/05/06 07:15:43;;;;;;;;;0.00;0.00;;;;;19.15;51.16;102706.75;5051774;28;9437;-71
2022/05/06 07:18:08;;;;;;;;;0.00;0.00;;;;;19.16;51.11;102698.81;5052500;28;8872;-71
2022/05/06 07:20:34;;;;;;;;;0.00;0.00;;;;;19.18;51.16;102699.75;5052092;28;8790;-71
2022/05/06 07:22:59;;;;;;;;;1.00;1.00;;;;;19.22;50.92;102696.28;5051431;28;9501;-71
2022/05/06 07:25:24;;;;;;;;;1.00;1.00;;;;;19.24;50.91;102693.63;5052310;28;8782;-71
2022/05/06 07:27:49;;;;;;;;;0.00;0.00;;;;;19.27;50.79;102691.06;5052079;28;8786;-71
2022/05/06 07:30:15;;;;;;;;;1.00;1.00;;;;;19.29;50.83;102698.16;5052178;28;8790;-69
2022/05/06 07:32:40;;;;;;;;;1.00;1.00;;;;;19.30;50.48;102689.34;5052546;28;8844;-71
2022/05/06 07:35:06;;;;;;;;;0.00;0.00;;;;;19.32;50.59;102689.34;5052267;28;9506;-70
2022/05/06 07:37:33;;;;;;;;;0.00;0.00;;;;;19.33;50.74;102687.59;5051579;28;8821;-71
2022/05/06 07:40:06;;;;;;;;;1.00;0.00;;;;;19.33;50.64;102695.53;5050572;28;8782;-71
2022/05/06 07:42:31;;;;;;;;;0.00;0.00;;;;;19.34;50.75;102689.38;5051505;28;9187;-71
2022/05/06 07:45:00;;;;;;;;;2.00;1.00;;;;;19.34;50.75;102694.69;5050646;28;9213;-72
2022/05/06 07:47:25;;;;;;;;;0.00;0.00;;;;;19.36;50.50;102687.63;5052016;28;8798;-71
2022/05/06 07:49:51;;;;;;;;;1.00;0.00;;;;;19.37;50.66;102685.03;5051345;28;9219;-71
2022/05/06 07:52:16;;;;;;;;;0.67;0.00;;;;;19.38;50.72;102677.97;5050857;28;8806;-71
2022/05/06 07:54:42;;;;;;;;;0.33;0.33;;;;;19.39;50.46;102674.44;5051875;28;8892;-71
2022/05/06 07:57:07;;;;;;;;;1.00;0.33;;;;;19.41;50.66;102675.34;5050330;28;8940;-71
2022/05/06 07:59:32;;;;;;;;;0.00;0.00;;;;;19.41;50.72;102678.00;5051294;28;8872;-72
2022/05/06 08:04:47;;;;;;;;;0.00;0.00;;;;;19.43;50.58;102671.00;5050227;28;9462;-71
2022/05/06 08:07:16;;;;;;;;;0.00;0.00;;;;;19.43;50.45;102673.63;5051327;28;9172;-71
2022/05/06 08:09:44;;;;;;;;;0.33;0.00;;;;;19.43;50.56;102671.88;5051017;28;9262;-71
2022/05/06 08:12:13;;;;;;;;;0.00;0.00;;;;;19.44;50.73;102667.47;5050675;28;9196;-71
2022/05/06 08:14:39;;;;;;;;;2.00;1.00;;;;;19.46;50.71;102661.31;5050863;28;9471;-71
2022/05/06 08:17:04;;;;;;;;;1.00;1.00;;;;;19.47;50.71;102662.22;5050368;28;9429;-71
2022/05/06 08:19:30;;;;;;;;;0.00;0.00;;;;;19.46;50.87;102653.38;5050650;28;8914;-71
2022/05/06 08:21:55;;;;;;;;;0.00;0.00;;;;;19.48;50.63;102654.31;5050843;28;8758;-71
2022/05/06 08:24:22;;;;;;;;;1.00;1.00;;;;;19.48;50.75;102651.66;5050847;28;8797;-71
2022/05/06 08:26:48;;;;;;;;;0.67;0.67;;;;;19.48;50.87;102656.97;5049910;28;8774;-71
2022/05/06 08:29:13;;;;;;;;;0.00;0.00;;;;;19.49;51.11;102658.75;5051170;28;9261;-72
2022/05/06 08:31:39;;;;;;;;;0.00;0.00;;;;;19.48;50.89;102654.31;5050967;28;9373;-70
2022/05/06 08:34:07;;;;;;;;;0.00;0.00;;;;;19.51;51.80;102651.69;5049787;28;8806;-68
2022/05/06 08:36:34;;;;;;;;;1.00;1.00;;;;;19.52;51.18;102658.78;5049439;28;8871;-68
2022/05/06 08:38:59;;;;;;;;;1.00;1.00;;;;;19.52;51.06;102658.78;5049377;28;9211;-68
2022/05/06 08:41:26;;;;;;;;;0.33;0.33;;;;;19.54;51.13;102664.97;5050115;28;9406;-68
2022/05/06 08:43:52;;;;;;;;;2.00;2.00;;;;;19.53;51.24;102663.19;5050408;28;9058;-68
2022/05/06 08:51:48;;;;;;;;;2.00;2.00;;;;;19.56;51.15;102654.41;5050130;28;9302;-67
2022/05/06 08:54:13;;;;;;;;;2.00;2.00;;;;;19.57;51.41;102656.19;5049674;28;9246;-68
2022/05/06 08:56:38;;;;;;;;;1.00;1.00;;;;;19.58;51.09;102656.19;5049758;28;9358;-68
2022/05/06 08:59:03;;;;;;;;;1.00;1.00;;;;;19.59;51.38;102646.50;5048097;28;8828;-68
2022/05/06 09:01:29;;;;;;;;;2.00;2.00;;;;;19.60;51.14;102650.94;5049393;28;8794;-68
2022/05/06 09:03:55;;;;;;;;;1.00;1.00;;;;;19.60;51.16;102657.13;5050245;28;8781;-68
2022/05/06 09:06:26;;;;;;;;;2.00;2.00;;;;;19.61;51.26;102652.69;5050125;28;8813;-68
2022/05/06 09:08:53;;;;;;;;;1.00;1.00;;;;;19.65;51.27;102658.06;5047227;28;9307;-68
2022/05/06 09:14:06;;;;;;;;;2.00;2.00;;;;;19.65;51.33;102651.88;5049725;28;9291;-67
2022/05/06 09:16:40;;;;;;;;;2.00;1.00;;;;;19.65;51.03;102649.22;5048202;28;9437;-68
2022/05/06 09:19:22;;;;;;;;;2.00;2.00;;;;;19.67;51.08;102645.75;5048144;28;8853;-67
2022/05/06 09:22:03;;;;;;;;;1.67;1.67;;;;;19.68;51.22;102651.94;5048950;28;9354;-68
2022/05/06 09:24:29;;;;;;;;;2.00;1.00;;;;;19.69;51.18;102648.38;5049713;28;9349;-70
2022/05/06 09:27:05;;;;;;;;;1.00;1.00;;;;;19.71;51.29;102644.00;5047648;28;9347;-69
2022/05/06 09:29:36;;;;;;;;;2.00;2.00;;;;;19.71;51.25;102652.88;5048821;28;9437;-69
2022/05/06 09:32:29;;;;;;;;;2.00;2.00;;;;;19.74;51.42;102644.06;5049694;28;9403;-69
2022/05/06 09:35:04;;;;;;;;;1.00;1.00;;;;;19.74;51.35;102652.00;5049823;28;9483;-68
2022/05/06 09:37:37;;;;;;;;;3.00;3.00;;;;;19.76;51.33;102650.25;5046996;28;9373;-68
2022/05/06 09:40:10;;;;;;;;;1.00;1.00;;;;;19.77;51.59;102652.03;5049722;28;9348;-69
2022/05/06 09:42:44;;;;;;;;;2.00;2.00;;;;;19.77;51.36;102655.56;5049231;28;9294;-69
2022/05/06 09:45:12;;;;;;;;;1.00;1.00;;;;;19.81;51.14;102647.66;5050021;28;9564;-69
2022/05/06 09:47:40;;;;;;;;;2.67;2.00;;;;;19.80;51.26;102646.75;5048766;28;9295;-69
2022/05/06 09:50:07;;;;;;;;;2.00;1.33;;;;;19.81;51.15;102640.59;5049066;28;9334;-69
2022/05/06 09:52:39;;;;;;;;;1.67;1.33;;;;;19.83;51.49;102635.31;5049707;28;9205;-69
2022/05/06 09:55:08;;;;;;;;;2.00;2.00;;;;;19.84;51.31;102630.03;5049380;28;9231;-69
2022/05/06 09:57:35;;;;;;;;;2.00;2.00;;;;;19.87;51.39;102639.81;5046955;28;9619;-70
2022/05/06 10:00:02;;;;;;;;;1.00;1.00;;;;;19.87;51.49;102629.19;5049117;28;9356;-69
2022/05/06 10:02:28;;;;;;;;;4.33;3.00;;;;;19.97;56.73;102631.06;5049467;28;9275;-69
2022/05/06 10:04:54;;;;;;;;;3.00;3.00;;;;;20.04;57.72;102627.63;5048758;28;9380;-69
2022/05/06 10:07:20;;;;;;;;;4.75;2.75;;;;;20.13;55.66;102630.38;5049393;28;8809;-68
2022/05/06 10:10:16;;;;;;;;;4.00;3.00;;;;;20.24;58.91;102631.38;5049145;28;9564;-67
2022/05/06 10:12:49;;;;;;;;;2.33;2.33;;;;;20.32;57.74;102631.50;5046936;28;9263;-68
2022/05/06 10:15:15;;;;;;;;;3.00;2.00;;;;;20.37;59.43;102630.66;5049859;28;9353;-68
2022/05/06 10:17:52;;;;;;;;;3.67;3.00;;;;;20.40;61.33;102627.13;5049066;28;9292;-68
2022/05/06 10:20:35;;;;;;;;;6.00;6.00;;;;;20.32;58.15;102621.75;5049314;28;8810;-68
2022/05/06 10:23:08;;;;;;;;;5.33;4.33;;;;;20.36;57.68;102620.03;5048644;28;10272;-69
2022/05/06 10:25:42;;;;;;;;;6.75;6.00;;;;;20.29;56.93;102621.72;5048789;28;9470;-69
2022/05/06 10:34:18;;;;;;;;;8.75;7.50;;;;;20.25;55.69;102606.59;5051707;28;9854;-68
2022/05/06 10:36:56;;;;;;;;;13.75;12.75;;;;;20.27;54.74;102611.09;5039581;28;9644;-69
2022/05/06 10:39:25;;;;;;;;;7.00;7.00;;;;;20.32;53.78;102610.28;5052135;28;9679;-69
2022/05/06 10:42:10;;;;;;;;;10.75;10.25;;;;;20.34;53.80;102605.84;5052730;28;9557;-69
2022/05/06 10:44:48;;;;;;;;;12.75;11.50;;;;;20.35;53.87;102602.34;5050859;28;9744;-68
2022/05/06 10:47:19;;;;;;;;;14.50;12.50;;;;;20.29;51.84;102602.25;5051664;28;9734;-69
2022/05/06 10:49:53;;;;;;;;;8.25;7.50;;;;;20.36;52.85;102596.16;5052295;28;9890;-69
2022/05/06 10:52:28;;;;;;;;;11.75;10.00;;;;;20.36;52.91;102607.63;5052533;28;9704;-69
2022/05/06 10:55:00;;;;;;;;;14.75;13.75;;;;;20.37;50.75;102604.13;5050117;28;9743;-69
2022/05/06 10:57:44;;;;;;;;;11.25;11.00;;;;;20.31;51.53;102600.53;5052315;28;9913;-70
2022/05/06 11:00:10;;;;;;;;;11.75;10.50;;;;;20.38;51.75;102605.00;5051661;28;10541;-70
2022/05/06 11:02:37;;;;;;;;;14.00;13.00;;;;;20.42;50.69;102606.81;5052202;28;9723;-70
2022/05/06 11:05:04;;;;;;;;;11.00;11.00;;;;;20.41;51.24;102600.63;5050577;28;8817;-70
2022/05/06 11:07:31;;;;;;;;;11.25;10.75;;;;;20.40;51.36;102601.47;5051375;28;9753;-69
2022/05/06 11:09:57;;;;;;;;;12.25;12.25;;;;;20.38;50.62;102597.06;5051856;28;9718;-69
2022/05/06 11:12:34;;;;;;;;;13.50;12.75;;;;;20.45;50.79;102597.13;5052381;28;9939;-70
2022/05/06 11:15:04;;;;;;;;;11.25;11.25;;;;;20.48;51.05;102598.91;5049265;28;8822;-70
2022/05/06 11:17:33;;;;;;;;;7.50;6.75;;;;;20.53;51.28;102590.13;5051603;28;9709;-70
2022/05/06 11:20:16;;;;;;;;;10.50;9.75;;;;;20.54;51.17;102599.88;5051960;28;9637;-69
2022/05/06 11:23:09;;;;;;;;;14.00;14.00;;;;;20.47;49.29;102584.75;5051376;28;9587;-70
2022/05/06 11:25:40;;;;;;;;;9.75;9.75;;;;;20.54;49.59;102583.94;5050250;28;10055;-70
2022/05/06 11:28:13;;;;;;;;;10.00;9.50;;;;;20.63;49.68;102585.75;5051241;28;9719;-69
2022/05/06 11:30:43;;;;;;;;;9.25;9.25;;;;;20.65;50.04;102576.97;5052209;28;9565;-69
2022/05/06 11:33:08;;;;;;;;;6.00;6.00;;;;;20.66;50.00;102577.81;5052248;28;9744;-70
2022/05/06 11:35:46;;;;;;;;;10.00;9.25;;;;;20.60;49.18;102573.38;5049917;28;9503;-69
2022/05/06 11:38:12;;;;;;;;;5.25;5.25;;;;;20.64;49.99;102571.63;5051514;28;8956;-70
2022/05/06 11:40:39;;;;;;;;;10.25;7.75;;;;;20.68;49.57;102576.97;5052095;28;9579;-69
2022/05/06 11:43:19;;;;;;;;;9.00;9.00;;;;;20.74;49.24;102569.03;5051397;28;8798;-69
2022/05/06 11:48:30;;;;;;;;;10.00;10.00;;;;;20.77;48.66;102562.00;5051523;28;9466;-69
2022/05/06 11:50:58;;;;;;;;;8.50;7.75;;;;;20.78;48.67;102563.75;5051286;28;9568;-68
2022/05/06 11:53:27;;;;;;;;;11.00;7.25;;;;;20.74;49.09;102561.09;5051871;28;8815;-68
2022/05/06 11:55:55;;;;;;;;;8.75;8.75;;;;;20.73;49.00;102561.09;5050190;28;9741;-67
2022/05/06 11:58:21;;;;;;;;;6.25;6.00;;;;;20.78;48.80;102569.06;5050916;28;10512;-68
2022/05/06 12:00:46;;;;;;;;;6.25;6.00;;;;;20.72;49.09;102554.88;5051459;28;9548;-68
2022/05/06 12:03:13;;;;;;;;;7.00;7.00;;;;;20.72;48.54;102554.00;5052105;28;9708;-68
2022/05/06 12:05:40;;;;;;;;;7.50;7.50;;;;;20.73;48.56;102556.63;5049827;28;8782;-68
2022/05/06 12:08:07;;;;;;;;;7.00;7.00;;;;;20.74;48.60;102555.78;5051203;28;9746;-68
2022/05/06 12:10:37;;;;;;;;;7.00;6.00;;;;;20.71;48.73;102557.53;5051053;28;9696;-68
2022/05/06 12:13:07;;;;;;;;;8.75;8.75;;;;;20.73;49.06;102558.44;5051090;28;9718;-68
2022/05/06 12:15:37;;;;;;;;;8.50;7.00;;;;;20.72;48.81;102554.88;5049361;28;9739;-68